Milburn, Nebraska
Current Conditions -  °F | °C
As of 11:53 AM on Monday 22 Dec 2014 (Local Time) from KBBW Reporting Station
Few Clouds Few Clouds  
Wind Chill: 36°   Ceiling: Unl
Heat Index: 45°   Visibility: 10mi
Dew Point: 32°   Wind: 23mph
Humidity: 60%   Direction: 310°NW
Pressure: 29.5"   Gusts: 35mph
Location:  41.6612°N, 99.7844°W
Report Text: KBBW 221753Z AUTO 31020G30KT 10SM FEW049 07/00 A2950 RMK AO2 PK WND 32030/1745 SLP999 T00720000 10072 20033 58009
Loading
Personal Weather Stations






























Interactive Weather Map New forecast layout! Learn more

10-Day Weather Forecast

Advertisements
Track Severe Weather on mobile